sensor_id;sensor_type;location;lat;lon;timestamp;pressure;altitude;pressure_sealevel;temperature;humidity
26531;BME280;14201;43.188;24.160;2022-08-23T00:00:45;98978.81;;;23.32;93.31
26531;BME280;14201;43.188;24.160;2022-08-23T00:03:11;98981.53;;;23.29;93.76
26531;BME280;14201;43.188;24.160;2022-08-23T00:05:38;98976.22;;;23.30;92.57
26531;BME280;14201;43.188;24.160;2022-08-23T00:08:04;98988.41;;;23.39;92.42
26531;BME280;14201;43.188;24.160;2022-08-23T00:10:29;98976.09;;;23.35;92.17
26531;BME280;14201;43.188;24.160;2022-08-23T00:12:55;98978.78;;;22.87;94.38
26531;BME280;14201;43.188;24.160;2022-08-23T00:15:20;98973.63;;;22.77;95.79
26531;BME280;14201;43.188;24.160;2022-08-23T00:17:46;98975.66;;;22.63;97.29
26531;BME280;14201;43.188;24.160;2022-08-23T00:20:15;98976.88;;;22.42;98.80
26531;BME280;14201;43.188;24.160;2022-08-23T00:25:08;98987.81;;;22.20;100.00
26531;BME280;14201;43.188;24.160;2022-08-23T00:27:33;98986.97;;;22.18;100.00
26531;BME280;14201;43.188;24.160;2022-08-23T00:29:59;98975.41;;;22.22;100.00
26531;BME280;14201;43.188;24.160;2022-08-23T00:32:29;98980.63;;;22.30;100.00
26531;BME280;14201;43.188;24.160;2022-08-23T00:34:55;98974.31;;;22.37;100.00
26531;BME280;14201;43.188;24.160;2022-08-23T00:37:21;98968.00;;;22.45;100.00
26531;BME280;14201;43.188;24.160;2022-08-23T00:39:47;98966.88;;;22.58;100.00
26531;BME280;14201;43.188;24.160;2022-08-23T00:45:06;98982.69;;;22.64;98.39
26531;BME280;14201;43.188;24.160;2022-08-23T00:47:50;98986.16;;;22.69;98.26
26531;BME280;14201;43.188;24.160;2022-08-23T00:50:33;98994.88;;;22.76;98.90
26531;BME280;14201;43.188;24.160;2022-08-23T00:55:27;98979.63;;;22.87;98.02
26531;BME280;14201;43.188;24.160;2022-08-23T00:57:53;98990.22;;;22.90;98.13
26531;BME280;14201;43.188;24.160;2022-08-23T01:00:19;98993.88;;;22.83;97.48
26531;BME280;14201;43.188;24.160;2022-08-23T01:02:45;98991.78;;;23.00;95.95
26531;BME280;14201;43.188;24.160;2022-08-23T01:05:15;99003.16;;;23.09;96.03
26531;BME280;14201;43.188;24.160;2022-08-23T01:10:27;99005.81;;;23.09;96.69
26531;BME280;14201;43.188;24.160;2022-08-23T01:13:02;99001.41;;;23.09;95.17
26531;BME280;14201;43.188;24.160;2022-08-23T01:15:45;99006.84;;;23.03;96.05
26531;BME280;14201;43.188;24.160;2022-08-23T01:18:12;99010.91;;;22.71;99.17
26531;BME280;14201;43.188;24.160;2022-08-23T01:21:40;99015.38;;;22.69;100.00
26531;BME280;14201;43.188;24.160;2022-08-23T01:23:44;99018.50;;;22.41;100.00
26531;BME280;14201;43.188;24.160;2022-08-23T01:26:11;99024.03;;;22.23;100.00
26531;BME280;14201;43.188;24.160;2022-08-23T01:28:38;99033.00;;;22.14;100.00
26531;BME280;14201;43.188;24.160;2022-08-23T01:31:05;99037.63;;;22.00;100.00
26531;BME280;14201;43.188;24.160;2022-08-23T01:33:31;99034.09;;;22.01;100.00
26531;BME280;14201;43.188;24.160;2022-08-23T01:35:57;99029.88;;;21.85;100.00
26531;BME280;14201;43.188;24.160;2022-08-23T01:38:23;99021.06;;;21.84;100.00
26531;BME280;14201;43.188;24.160;2022-08-23T01:40:49;99015.63;;;21.93;100.00
26531;BME280;14201;43.188;24.160;2022-08-23T01:43:16;99013.06;;;21.87;100.00
26531;BME280;14201;43.188;24.160;2022-08-23T01:45:44;99006.63;;;22.05;100.00
26531;BME280;14201;43.188;24.160;2022-08-23T01:48:10;99006.69;;;22.00;100.00
26531;BME280;14201;43.188;24.160;2022-08-23T01:50:35;99004.19;;;21.90;100.00
26531;BME280;14201;43.188;24.160;2022-08-23T01:53:01;98999.06;;;21.77;100.00
26531;BME280;14201;43.188;24.160;2022-08-23T01:55:26;98994.72;;;21.72;100.00
26531;BME280;14201;43.188;24.160;2022-08-23T01:57:52;98989.53;;;21.62;100.00
26531;BME280;14201;43.188;24.160;2022-08-23T02:00:19;98990.19;;;21.78;100.00
26531;BME280;14201;43.188;24.160;2022-08-23T02:02:45;98992.41;;;22.09;100.00
26531;BME280;14201;43.188;24.160;2022-08-23T02:05:11;98991.44;;;22.15;100.00
26531;BME280;14201;43.188;24.160;2022-08-23T02:07:36;98995.03;;;22.12;100.00
26531;BME280;14201;43.188;24.160;2022-08-23T02:10:02;98995.06;;;22.09;100.00
26531;BME280;14201;43.188;24.160;2022-08-23T02:12:28;98992.44;;;22.08;100.00
26531;BME280;14201;43.188;24.160;2022-08-23T02:14:54;98988.81;;;22.12;100.00
26531;BME280;14201;43.188;24.160;2022-08-23T02:17:19;98993.16;;;22.19;100.00
26531;BME280;14201;43.188;24.160;2022-08-23T02:19:46;98987.84;;;22.17;100.00
26531;BME280;14201;43.188;24.160;2022-08-23T02:22:11;98985.94;;;22.29;100.00
26531;BME280;14201;43.188;24.160;2022-08-23T02:24:41;98979.63;;;22.37;100.00
26531;BME280;14201;43.188;24.160;2022-08-23T02:27:07;98983.03;;;22.46;100.00
26531;BME280;14201;43.188;24.160;2022-08-23T02:29:33;98979.41;;;22.50;100.00
26531;BME280;14201;43.188;24.160;2022-08-23T02:31:59;98985.47;;;22.58;100.00
26531;BME280;14201;43.188;24.160;2022-08-23T02:34:27;98978.19;;;22.71;98.21
26531;BME280;14201;43.188;24.160;2022-08-23T02:36:54;98983.50;;;22.71;97.75
26531;BME280;14201;43.188;24.160;2022-08-23T02:39:20;98979.91;;;22.72;97.61
26531;BME280;14201;43.188;24.160;2022-08-23T02:41:45;98985.34;;;22.64;98.47
26531;BME280;14201;43.188;24.160;2022-08-23T02:44:12;98978.44;;;22.55;99.74
26531;BME280;14201;43.188;24.160;2022-08-23T02:46:38;98977.63;;;22.52;100.00
26531;BME280;14201;43.188;24.160;2022-08-23T02:49:04;98984.84;;;22.42;100.00
26531;BME280;14201;43.188;24.160;2022-08-23T02:51:29;98996.09;;;22.58;99.77
26531;BME280;14201;43.188;24.160;2022-08-23T02:53:55;99005.81;;;22.59;98.78
26531;BME280;14201;43.188;24.160;2022-08-23T02:56:21;99018.50;;;22.40;100.00
26531;BME280;14201;43.188;24.160;2022-08-23T02:58:47;99014.13;;;22.37;100.00
26531;BME280;14201;43.188;24.160;2022-08-23T03:01:14;99017.03;;;22.19;100.00
26531;BME280;14201;43.188;24.160;2022-08-23T03:03:40;99025.16;;;22.07;100.00
26531;BME280;14201;43.188;24.160;2022-08-23T03:06:05;99026.84;;;22.12;100.00
26531;BME280;14201;43.188;24.160;2022-08-23T03:08:30;99027.56;;;22.25;100.00
26531;BME280;14201;43.188;24.160;2022-08-23T03:10:56;99034.75;;;22.17;100.00
26531;BME280;14201;43.188;24.160;2022-08-23T03:13:21;99034.97;;;22.01;100.00
26531;BME280;14201;43.188;24.160;2022-08-23T03:15:47;99027.53;;;22.28;100.00
26531;BME280;14201;43.188;24.160;2022-08-23T03:18:12;99027.44;;;22.33;99.63
26531;BME280;14201;43.188;24.160;2022-08-23T03:20:38;99022.03;;;22.39;99.62
26531;BME280;14201;43.188;24.160;2022-08-23T03:23:06;99028.91;;;22.54;98.04
26531;BME280;14201;43.188;24.160;2022-08-23T03:25:31;99038.53;;;22.59;97.56
26531;BME280;14201;43.188;24.160;2022-08-23T03:27:57;99040.34;;;22.57;97.12
26531;BME280;14201;43.188;24.160;2022-08-23T03:30:22;99029.75;;;22.54;97.26
26531;BME280;14201;43.188;24.160;2022-08-23T03:32:47;99031.50;;;22.57;97.20
26531;BME280;14201;43.188;24.160;2022-08-23T03:35:13;99051.94;;;22.52;96.88
26531;BME280;14201;43.188;24.160;2022-08-23T03:37:38;99056.53;;;22.40;98.40
26531;BME280;14201;43.188;24.160;2022-08-23T03:40:04;99051.34;;;22.31;99.01
26531;BME280;14201;43.188;24.160;2022-08-23T03:42:32;99046.28;;;22.14;100.00
26531;BME280;14201;43.188;24.160;2022-08-23T03:44:57;99049.06;;;22.03;100.00
26531;BME280;14201;43.188;24.160;2022-08-23T03:47:22;99047.38;;;21.99;100.00
26531;BME280;14201;43.188;24.160;2022-08-23T03:49:48;99053.53;;;22.00;100.00
26531;BME280;14201;43.188;24.160;2022-08-23T03:52:13;99056.38;;;21.85;100.00
26531;BME280;14201;43.188;24.160;2022-08-23T03:54:39;99048.50;;;21.81;100.00
26531;BME280;14201;43.188;24.160;2022-08-23T03:57:06;99051.13;;;21.83;100.00
26531;BME280;14201;43.188;24.160;2022-08-23T03:59:34;99049.16;;;21.97;100.00
26531;BME280;14201;43.188;24.160;2022-08-23T04:01:59;99057.94;;;22.02;100.00
26531;BME280;14201;43.188;24.160;2022-08-23T04:04:25;99050.66;;;22.17;100.00
26531;BME280;14201;43.188;24.160;2022-08-23T04:06:51;99046.22;;;22.17;100.00
26531;BME280;14201;43.188;24.160;2022-08-23T04:09:17;99050.47;;;22.32;100.00
26531;BME280;14201;43.188;24.160;2022-08-23T04:11:43;99057.28;;;22.49;99.22
26531;BME280;14201;43.188;24.160;2022-08-23T04:14:08;99057.34;;;22.46;99.42
26531;BME280;14201;43.188;24.160;2022-08-23T04:16:35;99056.38;;;22.50;98.29
26531;BME280;14201;43.188;24.160;2022-08-23T04:19:05;99053.03;;;22.38;100.00
26531;BME280;14201;43.188;24.160;2022-08-23T04:21:30;99045.06;;;22.38;99.51
26531;BME280;14201;43.188;24.160;2022-08-23T04:23:56;99046.88;;;22.36;100.00
26531;BME280;14201;43.188;24.160;2022-08-23T04:26:21;99038.78;;;22.44;100.00
26531;BME280;14201;43.188;24.160;2022-08-23T04:28:47;99036.00;;;22.53;99.56
26531;BME280;14201;43.188;24.160;2022-08-23T04:31:12;99029.03;;;22.46;100.00
26531;BME280;14201;43.188;24.160;2022-08-23T04:33:38;99035.91;;;22.58;100.00
26531;BME280;14201;43.188;24.160;2022-08-23T04:36:04;99027.94;;;22.58;100.00
26531;BME280;14201;43.188;24.160;2022-08-23T04:38:29;99040.19;;;22.68;98.61
26531;BME280;14201;43.188;24.160;2022-08-23T04:40:55;99035.06;;;22.54;98.48
26531;BME280;14201;43.188;24.160;2022-08-23T04:43:39;99035.91;;;22.58;96.98
26531;BME280;14201;43.188;24.160;2022-08-23T04:46:05;99042.22;;;22.51;97.26
26531;BME280;14201;43.188;24.160;2022-08-23T04:48:31;99046.78;;;22.41;97.57
26531;BME280;14201;43.188;24.160;2022-08-23T04:50:57;99047.53;;;22.51;97.22
26531;BME280;14201;43.188;24.160;2022-08-23T04:53:22;99051.97;;;22.49;97.85
26531;BME280;14201;43.188;24.160;2022-08-23T04:55:48;99050.19;;;22.51;97.89
26531;BME280;14201;43.188;24.160;2022-08-23T04:58:16;99051.84;;;22.58;98.42
26531;BME280;14201;43.188;24.160;2022-08-23T05:00:42;99050.00;;;22.63;99.75
26531;BME280;14201;43.188;24.160;2022-08-23T05:03:07;99057.84;;;22.71;99.23
26531;BME280;14201;43.188;24.160;2022-08-23T05:05:33;99065.81;;;22.69;98.55
26531;BME280;14201;43.188;24.160;2022-08-23T05:07:59;99085.69;;;22.44;98.13
26531;BME280;14201;43.188;24.160;2022-08-23T05:10:25;99092.16;;;22.21;100.00
26531;BME280;14201;43.188;24.160;2022-08-23T05:12:50;99098.53;;;22.08;100.00
26531;BME280;14201;43.188;24.160;2022-08-23T05:15:16;99096.78;;;22.08;100.00
26531;BME280;14201;43.188;24.160;2022-08-23T05:17:42;99094.19;;;22.02;100.00
26531;BME280;14201;43.188;24.160;2022-08-23T05:20:07;99101.34;;;21.97;100.00
26531;BME280;14201;43.188;24.160;2022-08-23T05:22:38;99102.31;;;21.88;100.00
26531;BME280;14201;43.188;24.160;2022-08-23T05:25:05;99114.72;;;21.86;100.00
26531;BME280;14201;43.188;24.160;2022-08-23T05:27:30;99119.94;;;21.94;100.00
26531;BME280;14201;43.188;24.160;2022-08-23T05:29:56;99126.84;;;22.06;100.00
26531;BME280;14201;43.188;24.160;2022-08-23T05:32:22;99140.88;;;22.14;100.00
26531;BME280;14201;43.188;24.160;2022-08-23T05:34:47;99144.31;;;22.25;100.00
26531;BME280;14201;43.188;24.160;2022-08-23T05:37:13;99145.97;;;22.35;100.00
26531;BME280;14201;43.188;24.160;2022-08-23T05:39:39;99140.69;;;22.32;99.26
26531;BME280;14201;43.188;24.160;2022-08-23T05:42:09;99124.84;;;22.26;100.00
26531;BME280;14201;43.188;24.160;2022-08-23T05:44:34;99123.00;;;22.31;100.00
26531;BME280;14201;43.188;24.160;2022-08-23T05:47:01;99140.59;;;22.38;100.00
26531;BME280;14201;43.188;24.160;2022-08-23T05:49:27;99165.28;;;22.45;96.13
26531;BME280;14201;43.188;24.160;2022-08-23T05:51:53;99166.72;;;21.99;98.24
26531;BME280;14201;43.188;24.160;2022-08-23T05:54:18;99169.34;;;22.02;100.00
26531;BME280;14201;43.188;24.160;2022-08-23T05:56:44;99168.50;;;21.97;100.00
26531;BME280;14201;43.188;24.160;2022-08-23T05:59:10;99154.53;;;21.83;100.00
26531;BME280;14201;43.188;24.160;2022-08-23T06:01:37;99157.38;;;21.65;100.00
26531;BME280;14201;43.188;24.160;2022-08-23T06:04:03;99156.59;;;21.52;100.00
26531;BME280;14201;43.188;24.160;2022-08-23T06:06:30;99153.41;;;21.14;100.00
26531;BME280;14201;43.188;24.160;2022-08-23T06:08:56;99160.47;;;21.15;100.00
26531;BME280;14201;43.188;24.160;2022-08-23T06:11:22;99164.72;;;21.32;100.00
26531;BME280;14201;43.188;24.160;2022-08-23T06:13:49;99170.00;;;21.35;100.00
26531;BME280;14201;43.188;24.160;2022-08-23T06:16:16;99163.69;;;21.51;100.00
26531;BME280;14201;43.188;24.160;2022-08-23T06:18:42;99160.97;;;21.60;100.00
26531;BME280;14201;43.188;24.160;2022-08-23T06:21:09;99144.97;;;21.67;100.00
26531;BME280;14201;43.188;24.160;2022-08-23T06:23:35;99136.84;;;21.82;100.00
26531;BME280;14201;43.188;24.160;2022-08-23T06:26:15;99135.13;;;21.79;100.00
26531;BME280;14201;43.188;24.160;2022-08-23T06:28:41;99142.97;;;21.89;100.00
26531;BME280;14201;43.188;24.160;2022-08-23T06:31:08;99153.56;;;21.90;100.00
26531;BME280;14201;43.188;24.160;2022-08-23T06:33:34;99157.03;;;21.95;100.00
26531;BME280;14201;43.188;24.160;2022-08-23T06:36:01;99170.50;;;21.77;100.00
26531;BME280;14201;43.188;24.160;2022-08-23T06:38:28;99174.06;;;21.74;100.00
26531;BME280;14201;43.188;24.160;2022-08-23T06:41:04;99168.06;;;21.55;100.00
26531;BME280;14201;43.188;24.160;2022-08-23T06:43:31;99167.28;;;21.47;100.00
26531;BME280;14201;43.188;24.160;2022-08-23T06:46:07;99165.66;;;21.28;100.00
26531;BME280;14201;43.188;24.160;2022-08-23T06:48:33;99166.50;;;21.33;100.00
26531;BME280;14201;43.188;24.160;2022-08-23T06:50:58;99178.84;;;21.34;100.00
26531;BME280;14201;43.188;24.160;2022-08-23T06:53:24;99176.91;;;21.56;100.00
26531;BME280;14201;43.188;24.160;2022-08-23T06:55:49;99185.66;;;21.62;100.00
26531;BME280;14201;43.188;24.160;2022-08-23T06:58:15;99200.78;;;21.53;100.00
26531;BME280;14201;43.188;24.160;2022-08-23T07:00:40;99213.88;;;21.70;100.00
26531;BME280;14201;43.188;24.160;2022-08-23T07:03:06;99209.38;;;21.76;100.00
26531;BME280;14201;43.188;24.160;2022-08-23T07:05:31;99211.31;;;21.63;100.00
26531;BME280;14201;43.188;24.160;2022-08-23T07:07:57;99220.00;;;21.75;100.00
26531;BME280;14201;43.188;24.160;2022-08-23T07:10:23;99217.25;;;21.84;100.00
26531;BME280;14201;43.188;24.160;2022-08-23T07:12:48;99217.25;;;21.84;100.00
26531;BME280;14201;43.188;24.160;2022-08-23T07:15:14;99219.03;;;21.85;100.00
26531;BME280;14201;43.188;24.160;2022-08-23T07:17:39;99220.84;;;21.80;100.00
26531;BME280;14201;43.188;24.160;2022-08-23T07:20:05;99214.78;;;21.67;100.00
26531;BME280;14201;43.188;24.160;2022-08-23T07:22:31;99207.59;;;21.77;100.00
26531;BME280;14201;43.188;24.160;2022-08-23T07:24:56;99209.44;;;21.72;100.00
26531;BME280;14201;43.188;24.160;2022-08-23T07:27:22;99210.38;;;21.65;100.00
26531;BME280;14201;43.188;24.160;2022-08-23T07:29:48;99200.78;;;21.51;100.00
26531;BME280;14201;43.188;24.160;2022-08-23T07:32:13;99193.94;;;21.24;100.00
26531;BME280;14201;43.188;24.160;2022-08-23T07:34:39;99201.88;;;21.26;100.00
26531;BME280;14201;43.188;24.160;2022-08-23T07:37:04;99206.31;;;21.20;100.00
26531;BME280;14201;43.188;24.160;2022-08-23T07:39:30;99203.50;;;21.43;100.00
26531;BME280;14201;43.188;24.160;2022-08-23T07:42:00;99206.19;;;21.40;100.00
26531;BME280;14201;43.188;24.160;2022-08-23T07:44:26;99208.88;;;21.33;100.00
26531;BME280;14201;43.188;24.160;2022-08-23T07:46:51;99213.28;;;21.37;100.00
26531;BME280;14201;43.188;24.160;2022-08-23T07:49:16;99219.41;;;21.45;100.00
26531;BME280;14201;43.188;24.160;2022-08-23T07:51:44;99223.69;;;21.60;100.00
26531;BME280;14201;43.188;24.160;2022-08-23T07:54:10;99224.44;;;21.76;100.00
26531;BME280;14201;43.188;24.160;2022-08-23T07:56:37;99221.63;;;21.90;100.00
26531;BME280;14201;43.188;24.160;2022-08-23T07:59:03;99222.34;;;22.06;100.00
26531;BME280;14201;43.188;24.160;2022-08-23T08:01:29;99213.22;;;22.31;100.00
26531;BME280;14201;43.188;24.160;2022-08-23T08:03:56;99220.97;;;22.50;100.00
26531;BME280;14201;43.188;24.160;2022-08-23T08:06:23;99218.78;;;22.79;99.54
26531;BME280;14201;43.188;24.160;2022-08-23T08:08:49;99229.78;;;23.15;98.50
26531;BME280;14201;43.188;24.160;2022-08-23T08:11:16;99235.63;;;23.39;91.49
26531;BME280;14201;43.188;24.160;2022-08-23T08:13:42;99238.91;;;23.53;92.33
26531;BME280;14201;43.188;24.160;2022-08-23T08:16:09;99246.69;;;23.66;91.25
26531;BME280;14201;43.188;24.160;2022-08-23T08:18:36;99246.47;;;23.81;94.53
26531;BME280;14201;43.188;24.160;2022-08-23T08:21:04;99250.00;;;24.28;91.99
26531;BME280;14201;43.188;24.160;2022-08-23T08:23:29;99239.69;;;24.56;89.70
26531;BME280;14201;43.188;24.160;2022-08-23T08:25:59;99239.41;;;24.69;82.11
26531;BME280;14201;43.188;24.160;2022-08-23T08:28:25;99226.47;;;24.92;88.96
26531;BME280;14201;43.188;24.160;2022-08-23T08:30:51;99231.47;;;25.06;87.11
26531;BME280;14201;43.188;24.160;2022-08-23T08:33:17;99231.78;;;25.31;83.65
26531;BME280;14201;43.188;24.160;2022-08-23T08:35:45;99241.31;;;25.76;78.67
26531;BME280;14201;43.188;24.160;2022-08-23T08:38:11;99242.31;;;26.08;82.34
26531;BME280;14201;43.188;24.160;2022-08-23T08:40:37;99237.34;;;26.57;86.33
26531;BME280;14201;43.188;24.160;2022-08-23T08:43:07;99226.09;;;27.05;79.36
26531;BME280;14201;43.188;24.160;2022-08-23T08:45:44;99232.94;;;27.14;71.01
26531;BME280;14201;43.188;24.160;2022-08-23T08:48:14;99235.13;;;27.30;72.45
26531;BME280;14201;43.188;24.160;2022-08-23T08:50:55;99231.97;;;27.44;72.97
26531;BME280;14201;43.188;24.160;2022-08-23T08:53:23;99240.47;;;27.57;71.50
26531;BME280;14201;43.188;24.160;2022-08-23T08:55:50;99250.84;;;27.66;69.54
26531;BME280;14201;43.188;24.160;2022-08-23T08:58:29;99249.66;;;26.92;69.59
26531;BME280;14201;43.188;24.160;2022-08-23T09:00:57;99251.72;;;26.84;71.58
26531;BME280;14201;43.188;24.160;2022-08-23T09:03:23;99240.78;;;26.91;70.85
26531;BME280;14201;43.188;24.160;2022-08-23T09:06:13;99236.94;;;27.00;70.01
26531;BME280;14201;43.188;24.160;2022-08-23T09:11:31;99230.63;;;27.31;73.03
26531;BME280;14201;43.188;24.160;2022-08-23T09:14:07;99239.19;;;27.69;67.63
26531;BME280;14201;43.188;24.160;2022-08-23T09:19:21;99247.59;;;28.10;65.72
26531;BME280;14201;43.188;24.160;2022-08-23T09:21:48;99248.34;;;28.14;68.57
26531;BME280;14201;43.188;24.160;2022-08-23T09:24:18;99254.56;;;28.14;67.08
26531;BME280;14201;43.188;24.160;2022-08-23T09:26:43;99263.66;;;27.83;66.15
26531;BME280;14201;43.188;24.160;2022-08-23T09:29:16;99253.03;;;26.99;69.46
26531;BME280;14201;43.188;24.160;2022-08-23T09:31:43;99253.88;;;27.01;69.89
26531;BME280;14201;43.188;24.160;2022-08-23T09:34:14;99245.50;;;26.83;69.54
26531;BME280;14201;43.188;24.160;2022-08-23T09:36:41;99243.59;;;26.56;69.92
26531;BME280;14201;43.188;24.160;2022-08-23T09:39:22;99240.69;;;26.65;70.02
26531;BME280;14201;43.188;24.160;2022-08-23T09:41:48;99236.22;;;26.65;69.87
26531;BME280;14201;43.188;24.160;2022-08-23T09:44:28;99243.97;;;26.75;70.98
26531;BME280;14201;43.188;24.160;2022-08-23T09:47:03;99239.44;;;26.77;70.04
26531;BME280;14201;43.188;24.160;2022-08-23T09:49:29;99244.78;;;26.14;72.20
26531;BME280;14201;43.188;24.160;2022-08-23T09:51:55;99239.81;;;26.33;72.36
26531;BME280;14201;43.188;24.160;2022-08-23T09:54:33;99251.78;;;26.18;76.63
26531;BME280;14201;43.188;24.160;2022-08-23T09:57:03;99250.56;;;25.99;77.21
26531;BME280;14201;43.188;24.160;2022-08-23T09:59:40;99254.59;;;25.79;75.56
26531;BME280;14201;43.188;24.160;2022-08-23T10:02:08;99260.97;;;25.73;78.81
26531;BME280;14201;43.188;24.160;2022-08-23T10:04:39;99270.56;;;25.81;81.13
26531;BME280;14201;43.188;24.160;2022-08-23T10:09:49;99274.31;;;25.73;79.02
26531;BME280;14201;43.188;24.160;2022-08-23T10:12:15;99281.81;;;25.58;83.16
26531;BME280;14201;43.188;24.160;2022-08-23T10:14:40;99283.28;;;25.33;84.23
26531;BME280;14201;43.188;24.160;2022-08-23T10:22:10;99261.59;;;24.69;88.56
26531;BME280;14201;43.188;24.160;2022-08-23T10:27:09;99257.69;;;24.42;89.24
26531;BME280;14201;43.188;24.160;2022-08-23T10:30:16;99237.09;;;24.52;87.90
26531;BME280;14201;43.188;24.160;2022-08-23T10:32:58;99247.41;;;24.69;86.75
26531;BME280;14201;43.188;24.160;2022-08-23T10:41:02;99255.91;;;24.43;93.91
26531;BME280;14201;43.188;24.160;2022-08-23T10:43:50;99263.75;;;24.52;92.21
26531;BME280;14201;43.188;24.160;2022-08-23T10:46:19;99263.94;;;24.41;91.08
26531;BME280;14201;43.188;24.160;2022-08-23T10:48:47;99269.97;;;24.52;89.15
26531;BME280;14201;43.188;24.160;2022-08-23T10:51:25;99273.41;;;24.56;90.46
26531;BME280;14201;43.188;24.160;2022-08-23T10:53:54;99275.41;;;24.45;87.25
26531;BME280;14201;43.188;24.160;2022-08-23T10:56:24;99272.97;;;24.32;88.77
26531;BME280;14201;43.188;24.160;2022-08-23T10:58:51;99285.03;;;24.05;89.40
26531;BME280;14201;43.188;24.160;2022-08-23T11:01:22;99285.81;;;24.12;89.82
26531;BME280;14201;43.188;24.160;2022-08-23T11:03:59;99295.53;;;24.13;91.97
26531;BME280;14201;43.188;24.160;2022-08-23T11:09:35;99310.06;;;23.93;94.26
26531;BME280;14201;43.188;24.160;2022-08-23T11:11:43;99306.44;;;23.97;93.38
26531;BME280;14201;43.188;24.160;2022-08-23T11:14:12;99300.16;;;24.02;93.70
26531;BME280;14201;43.188;24.160;2022-08-23T11:16:53;99306.28;;;24.07;92.97
26531;BME280;14201;43.188;24.160;2022-08-23T11:19:44;99300.28;;;23.95;91.38
26531;BME280;14201;43.188;24.160;2022-08-23T11:22:13;99296.63;;;24.01;92.78
26531;BME280;14201;43.188;24.160;2022-08-23T11:24:56;99298.34;;;24.04;93.92
26531;BME280;14201;43.188;24.160;2022-08-23T11:29:54;99287.78;;;23.46;92.85
26531;BME280;14201;43.188;24.160;2022-08-23T11:32:21;99282.66;;;23.34;94.56
26531;BME280;14201;43.188;24.160;2022-08-23T11:37:47;99276.47;;;23.32;93.69
26531;BME280;14201;43.188;24.160;2022-08-23T11:40:13;99275.63;;;23.30;96.91
26531;BME280;14201;43.188;24.160;2022-08-23T11:47:44;99269.41;;;23.32;94.15
26531;BME280;14201;43.188;24.160;2022-08-23T12:03:33;99285.78;;;23.61;92.32
26531;BME280;14201;43.188;24.160;2022-08-23T12:11:14;99285.75;;;23.64;94.18
26531;BME280;14201;43.188;24.160;2022-08-23T12:13:44;99280.31;;;23.70;91.63
26531;BME280;14201;43.188;24.160;2022-08-23T12:21:26;99279.97;;;23.91;93.02
26531;BME280;14201;43.188;24.160;2022-08-23T12:23:54;99275.38;;;24.00;94.65
26531;BME280;14201;43.188;24.160;2022-08-23T12:26:30;99272.84;;;23.93;93.51
26531;BME280;14201;43.188;24.160;2022-08-23T12:29:03;99273.69;;;23.95;91.29
26531;BME280;14201;43.188;24.160;2022-08-23T12:31:37;99265.66;;;23.98;89.50
26531;BME280;14201;43.188;24.160;2022-08-23T12:34:21;99255.28;;;24.30;87.71
26531;BME280;14201;43.188;24.160;2022-08-23T12:37:05;99266.09;;;24.67;87.04
26531;BME280;14201;43.188;24.160;2022-08-23T12:39:37;99261.00;;;24.97;88.18
26531;BME280;14201;43.188;24.160;2022-08-23T12:42:14;99273.56;;;25.31;87.34
26531;BME280;14201;43.188;24.160;2022-08-23T12:44:43;99273.06;;;25.52;87.29
26531;BME280;14201;43.188;24.160;2022-08-23T12:47:10;99269.94;;;25.71;86.10
26531;BME280;14201;43.188;24.160;2022-08-23T12:49:37;99252.81;;;25.78;85.16
26531;BME280;14201;43.188;24.160;2022-08-23T12:52:07;99242.03;;;25.84;85.56
26531;BME280;14201;43.188;24.160;2022-08-23T12:54:40;99234.47;;;26.02;82.56
26531;BME280;14201;43.188;24.160;2022-08-23T12:57:07;99237.44;;;26.22;80.99
26531;BME280;14201;43.188;24.160;2022-08-23T13:02:29;99240.50;;;26.40;78.32
26531;BME280;14201;43.188;24.160;2022-08-23T13:04:57;99248.94;;;26.24;77.85
26531;BME280;14201;43.188;24.160;2022-08-23T13:07:26;99244.19;;;26.36;78.01
26531;BME280;14201;43.188;24.160;2022-08-23T13:09:52;99247.03;;;26.29;76.34
26531;BME280;14201;43.188;24.160;2022-08-23T13:12:18;99244.16;;;25.70;78.29
26531;BME280;14201;43.188;24.160;2022-08-23T13:14:46;99236.28;;;26.00;78.63
26531;BME280;14201;43.188;24.160;2022-08-23T13:17:15;99236.75;;;26.16;74.74
26531;BME280;14201;43.188;24.160;2022-08-23T13:19:41;99218.78;;;26.21;72.21
26531;BME280;14201;43.188;24.160;2022-08-23T13:24:40;99218.63;;;26.27;75.27
26531;BME280;14201;43.188;24.160;2022-08-23T13:27:14;99217.00;;;26.21;74.33
26531;BME280;14201;43.188;24.160;2022-08-23T13:29:50;99212.00;;;26.09;75.52
26531;BME280;14201;43.188;24.160;2022-08-23T13:32:23;99196.09;;;26.06;75.35
26531;BME280;14201;43.188;24.160;2022-08-23T13:34:50;99207.16;;;26.23;73.93
26531;BME280;14201;43.188;24.160;2022-08-23T13:37:25;99204.09;;;26.37;74.82
26531;BME280;14201;43.188;24.160;2022-08-23T13:39:55;99196.16;;;26.34;72.37
26531;BME280;14201;43.188;24.160;2022-08-23T13:42:33;99203.22;;;26.37;72.44
26531;BME280;14201;43.188;24.160;2022-08-23T13:45:07;99203.03;;;26.43;71.74
26531;BME280;14201;43.188;24.160;2022-08-23T13:47:32;99203.72;;;26.49;72.59
26531;BME280;14201;43.188;24.160;2022-08-23T13:49:58;99214.00;;;26.63;71.94
26531;BME280;14201;43.188;24.160;2022-08-23T13:52:26;99215.63;;;26.69;72.20
26531;BME280;14201;43.188;24.160;2022-08-23T13:54:51;99221.59;;;26.77;71.72
26531;BME280;14201;43.188;24.160;2022-08-23T13:57:17;99234.59;;;26.89;72.88
26531;BME280;14201;43.188;24.160;2022-08-23T13:59:48;99238.47;;;26.79;71.22
26531;BME280;14201;43.188;24.160;2022-08-23T14:02:16;99241.28;;;26.75;71.32
26531;BME280;14201;43.188;24.160;2022-08-23T14:04:42;99239.44;;;26.77;74.52